Time;durP1;ratioP1;P1;durP2;ratioP2;P2;SDS_P1;SDS_P2;PMS_P1;PMS_P2;Temp;Humidity;BMP_temperature;BMP_pressure;BME280_temperature;BME280_humidity;BME280_pressure;Samples;Min_cycle;Max_cycle;Signal;HPM_P1;HPM_P2
2021/12/27 00:00:15;;;;;;;44.38;19.58;;;-0.10;99.90;;;;;;5041036;28;20127;-70
2021/12/27 00:02:41;;;;;;;41.58;20.40;;;-0.10;99.90;;;;;;5050516;28;20024;-70
2021/12/27 00:05:08;;;;;;;42.72;20.88;;;-0.10;99.90;;;;;;5027721;28;20024;-70
2021/12/27 00:07:34;;;;;;;44.20;19.83;;;0.00;99.90;;;;;;5034100;28;20040;-70
2021/12/27 00:10:00;;;;;;;45.93;21.13;;;0.00;99.90;;;;;;5042206;28;20025;-70
2021/12/27 00:12:27;;;;;;;40.47;19.30;;;0.10;99.90;;;;;;5041709;28;20017;-70
2021/12/27 00:14:53;;;;;;;42.45;19.70;;;0.00;99.90;;;;;;5040904;28;20024;-70
2021/12/27 00:17:19;;;;;;;42.33;19.47;;;0.00;99.90;;;;;;5039401;28;20374;-70
2021/12/27 00:19:44;;;;;;;41.87;21.10;;;-0.10;99.90;;;;;;5038340;28;20021;-69
2021/12/27 00:22:10;;;;;;;43.83;20.87;;;-0.10;99.90;;;;;;5023015;28;20267;-70
2021/12/27 00:24:37;;;;;;;39.33;18.70;;;-0.20;99.90;;;;;;5034558;28;20639;-69
2021/12/27 00:27:03;;;;;;;44.25;20.48;;;-0.10;99.90;;;;;;5039117;28;20550;-71
2021/12/27 00:29:28;;;;;;;40.37;19.83;;;-0.20;99.90;;;;;;5035162;28;20156;-71
2021/12/27 00:31:54;;;;;;;43.77;20.27;;;-0.20;99.90;;;;;;5043237;28;20390;-70
2021/12/27 00:34:19;;;;;;;38.73;20.63;;;-0.10;99.90;;;;;;5038496;28;20043;-70
2021/12/27 00:36:45;;;;;;;43.50;20.10;;;-0.20;99.90;;;;;;5044978;28;20817;-70
2021/12/27 00:39:12;;;;;;;43.53;19.40;;;-0.20;99.90;;;;;;5048085;28;20057;-69
2021/12/27 00:41:37;;;;;;;40.88;20.70;;;-0.20;99.90;;;;;;5041636;28;20009;-70
2021/12/27 00:44:03;;;;;;;41.13;19.73;;;-0.40;99.90;;;;;;5045193;28;20031;-70
2021/12/27 00:46:29;;;;;;;44.13;21.63;;;-0.40;99.90;;;;;;5045917;28;20466;-70
2021/12/27 00:48:55;;;;;;;41.07;19.63;;;-0.40;99.90;;;;;;5047605;28;20035;-71
2021/12/27 00:51:20;;;;;;;46.00;19.73;;;-0.50;99.90;;;;;;5040764;28;20366;-71
2021/12/27 00:53:46;;;;;;;40.50;19.27;;;-0.40;99.90;;;;;;5045138;28;20768;-70
2021/12/27 00:56:12;;;;;;;41.90;20.53;;;-0.50;99.90;;;;;;5043092;28;20162;-71
2021/12/27 00:58:37;;;;;;;41.03;19.40;;;-0.40;99.90;;;;;;5038798;28;21004;-70
2021/12/27 01:01:03;;;;;;;43.77;20.00;;;-0.40;99.90;;;;;;5042826;28;20025;-69
2021/12/27 01:03:29;;;;;;;44.37;19.97;;;-0.30;99.90;;;;;;5039157;28;20031;-70
2021/12/27 01:05:55;;;;;;;39.10;19.60;;;-0.30;99.90;;;;;;5042174;28;20739;-70
2021/12/27 01:08:23;;;;;;;46.40;20.43;;;-0.30;99.90;;;;;;5039094;28;20020;-70
2021/12/27 01:13:22;;;;;;;39.80;19.90;;;-0.40;99.90;;;;;;5044364;28;20025;-70
2021/12/27 01:18:50;;;;;;;44.08;19.33;;;-0.40;99.90;;;;;;5008570;28;20024;-71
2021/12/27 01:21:19;;;;;;;38.13;19.05;;;-0.40;99.90;;;;;;5041512;28;20021;-70
2021/12/27 01:23:46;;;;;;;41.47;19.23;;;-0.30;99.90;;;;;;5044038;28;20021;-70
2021/12/27 01:26:13;;;;;;;40.38;19.20;;;-0.30;99.90;;;;;;5038353;28;20021;-69
2021/12/27 01:28:40;;;;;;;44.17;18.60;;;-0.20;99.90;;;;;;5046202;28;20152;-70
2021/12/27 01:31:06;;;;;;;43.58;19.75;;;-0.20;99.90;;;;;;5037649;28;20020;-70
2021/12/27 01:33:32;;;;;;;38.05;18.58;;;-0.20;99.90;;;;;;5041615;28;20023;-70
2021/12/27 01:36:02;;;;;;;40.35;19.13;;;-0.20;99.90;;;;;;5041777;28;20560;-70
2021/12/27 01:38:27;;;;;;;43.33;20.02;;;-0.30;99.90;;;;;;5051646;28;20547;-70
2021/12/27 01:40:56;;;;;;;44.13;20.57;;;-0.20;99.90;;;;;;5038736;28;20025;-70
2021/12/27 01:43:27;;;;;;;40.10;19.23;;;-0.20;99.90;;;;;;5042405;28;20155;-70
2021/12/27 01:45:56;;;;;;;42.00;20.08;;;-0.30;99.90;;;;;;5040878;28;20024;-70
2021/12/27 01:48:25;;;;;;;43.63;19.85;;;-0.30;99.90;;;;;;5038229;28;20104;-71
2021/12/27 01:50:53;;;;;;;43.28;19.30;;;-0.40;99.90;;;;;;5026709;28;20076;-70
2021/12/27 01:53:21;;;;;;;49.05;21.00;;;-0.40;99.90;;;;;;5041798;28;20031;-71
2021/12/27 01:55:48;;;;;;;40.15;21.25;;;-0.40;99.90;;;;;;5040708;28;20029;-70
2021/12/27 01:58:14;;;;;;;43.55;21.90;;;-0.30;99.90;;;;;;5023946;28;20447;-70
2021/12/27 02:00:44;;;;;;;44.05;20.27;;;-0.30;99.90;;;;;;5036480;28;20032;-70
2021/12/27 02:03:10;;;;;;;42.28;19.30;;;-0.30;99.90;;;;;;5044735;28;20070;-70
2021/12/27 02:05:36;;;;;;;38.43;19.37;;;-0.30;99.90;;;;;;5040078;28;20037;-70
2021/12/27 02:08:04;;;;;;;43.90;21.13;;;-0.40;99.90;;;;;;5040493;28;20107;-70
2021/12/27 02:10:29;;;;;;;45.33;20.92;;;-0.30;99.90;;;;;;5044223;28;20021;-70
2021/12/27 02:12:55;;;;;;;43.63;20.83;;;-0.30;99.90;;;;;;5047028;28;20469;-70
2021/12/27 02:15:22;;;;;;;41.23;20.33;;;-0.40;99.90;;;;;;5044486;28;20021;-70
2021/12/27 02:17:47;;;;;;;44.33;20.77;;;-0.30;99.90;;;;;;5023102;28;20474;-70
2021/12/27 02:20:20;;;;;;;44.13;20.27;;;-0.30;99.90;;;;;;5048772;28;20036;-70
2021/12/27 02:22:47;;;;;;;46.60;20.17;;;-0.30;99.90;;;;;;5040136;28;20028;-70
2021/12/27 02:25:13;;;;;;;;;;;-0.30;99.90;;;;;;5042401;28;20029;-70
2021/12/27 02:27:39;;;;;;;47.08;19.20;;;-0.30;99.90;;;;;;5035874;28;19995;-70
2021/12/27 02:30:08;;;;;;;41.50;19.45;;;-0.40;99.90;;;;;;5041560;28;20456;-69
2021/12/27 02:32:45;;;;;;;41.08;19.25;;;-0.40;99.90;;;;;;5035596;28;20063;-70
2021/12/27 02:35:18;;;;;;;44.70;20.10;;;-0.40;99.90;;;;;;5043346;28;20074;-70
2021/12/27 02:37:44;;;;;;;44.80;19.80;;;-0.40;99.90;;;;;;5036338;28;20264;-70
2021/12/27 02:40:11;;;;;;;47.80;20.00;;;-0.50;99.90;;;;;;5047403;28;20374;-70
2021/12/27 02:42:53;;;;;;;44.42;20.20;;;-0.50;99.90;;;;;;5036133;28;20025;-70
2021/12/27 02:45:20;;;;;;;47.20;20.23;;;-0.50;99.90;;;;;;5045253;28;20032;-71
2021/12/27 02:47:46;;;;;;;39.85;19.45;;;-0.40;99.90;;;;;;5039500;28;20052;-70
2021/12/27 02:50:12;;;;;;;37.80;20.03;;;-0.40;99.90;;;;;;5041663;28;20740;-70
2021/12/27 02:52:39;;;;;;;35.67;17.27;;;-0.40;99.90;;;;;;5035338;28;20044;-71
2021/12/27 02:55:06;;;;;;;33.63;16.08;;;-0.50;99.90;;;;;;5040054;28;20031;-70
2021/12/27 02:57:31;;;;;;;41.53;18.15;;;-0.60;99.90;;;;;;5034710;28;20045;-70
2021/12/27 02:59:57;;;;;;;37.47;17.73;;;-0.50;99.90;;;;;;5044463;28;20685;-70
2021/12/27 03:02:23;;;;;;;37.57;18.07;;;-0.50;99.90;;;;;;5036120;28;20523;-70
2021/12/27 03:04:49;;;;;;;39.92;17.92;;;-0.50;99.90;;;;;;5040706;28;20374;-69
2021/12/27 03:07:15;;;;;;;33.63;17.17;;;-0.50;99.90;;;;;;5022496;28;20037;-70
2021/12/27 03:09:42;;;;;;;40.37;20.10;;;-0.40;99.90;;;;;;5042784;28;20021;-70
2021/12/27 03:12:11;;;;;;;37.95;17.98;;;-0.50;99.90;;;;;;5042785;28;20017;-70
2021/12/27 03:14:38;;;;;;;32.20;14.82;;;-0.50;99.90;;;;;;5042838;28;20067;-70
2021/12/27 03:17:04;;;;;;;31.98;15.35;;;-0.60;99.90;;;;;;5056512;28;20492;-70
2021/12/27 03:19:30;;;;;;;36.75;16.58;;;-0.60;99.90;;;;;;5020312;28;20025;-70
2021/12/27 03:21:55;;;;;;;34.40;15.37;;;-0.70;99.90;;;;;;5039320;28;20028;-70
2021/12/27 03:24:22;;;;;;;36.50;16.50;;;-0.60;99.90;;;;;;5036305;28;20032;-70
2021/12/27 03:26:49;;;;;;;30.67;14.90;;;-0.60;99.90;;;;;;5039929;28;20405;-70
2021/12/27 03:29:15;;;;;;;31.95;16.23;;;-0.50;99.90;;;;;;5025075;28;20134;-71
2021/12/27 03:31:41;;;;;;;40.73;15.80;;;-0.50;99.90;;;;;;5036886;28;21083;-70
2021/12/27 03:34:07;;;;;;;35.15;15.65;;;-0.50;99.90;;;;;;5039402;28;20029;-70
2021/12/27 03:36:40;;;;;;;34.87;16.73;;;-0.40;99.90;;;;;;5037990;28;20516;-69
2021/12/27 03:39:10;;;;;;;30.65;15.85;;;-0.40;99.90;;;;;;5028396;28;20033;-69
2021/12/27 03:41:36;;;;;;;34.28;16.02;;;-0.40;99.90;;;;;;5021748;28;20017;-70
2021/12/27 03:44:03;;;;;;;30.97;16.33;;;-0.50;99.90;;;;;;5038643;28;20024;-70
2021/12/27 03:46:30;;;;;;;39.55;17.88;;;-0.40;99.90;;;;;;5037610;28;20024;-70
2021/12/27 03:48:56;;;;;;;32.33;15.55;;;-0.30;99.90;;;;;;5024291;28;20752;-70
2021/12/27 03:51:22;;;;;;;37.13;17.30;;;-0.30;99.90;;;;;;5037942;28;20025;-70
2021/12/27 03:53:48;;;;;;;37.97;17.17;;;-0.30;99.90;;;;;;5022139;28;20025;-70
2021/12/27 03:56:14;;;;;;;37.92;16.38;;;-0.30;99.90;;;;;;5040599;28;20025;-70
2021/12/27 03:58:54;;;;;;;35.17;18.30;;;-0.40;99.90;;;;;;5034860;28;20075;-70
2021/12/27 04:01:21;;;;;;;39.13;18.85;;;-0.40;99.90;;;;;;5042032;28;20021;-69
2021/12/27 04:03:53;;;;;;;41.92;18.65;;;-0.30;99.90;;;;;;5037044;28;20059;-70
2021/12/27 04:06:20;;;;;;;38.72;17.48;;;-0.30;99.90;;;;;;5040768;28;20028;-70
2021/12/27 04:08:46;;;;;;;39.17;18.30;;;-0.20;99.90;;;;;;5050640;28;20818;-70
2021/12/27 04:11:13;;;;;;;39.57;18.73;;;-0.20;99.90;;;;;;5046421;28;20025;-70
2021/12/27 04:13:40;;;;;;;37.25;18.67;;;-0.20;99.90;;;;;;5038511;28;20040;-70
2021/12/27 04:16:06;;;;;;;38.60;18.92;;;-0.20;99.90;;;;;;5047347;28;20029;-70
2021/12/27 04:18:32;;;;;;;41.00;19.27;;;-0.20;99.90;;;;;;5026727;28;20017;-70
2021/12/27 04:20:58;;;;;;;35.10;18.17;;;-0.10;99.90;;;;;;5054563;28;20339;-70
2021/12/27 04:23:25;;;;;;;41.13;19.92;;;0.00;99.90;;;;;;5045087;28;20247;-70
2021/12/27 04:25:50;;;;;;;;;;;-0.10;99.90;;;;;;5049363;28;20082;-70
2021/12/27 04:28:19;;;;;;;37.70;18.50;;;-0.10;99.90;;;;;;5049208;28;19927;-70
2021/12/27 04:30:45;;;;;;;38.42;18.05;;;-0.10;99.90;;;;;;5030899;28;20021;-70
2021/12/27 04:33:11;;;;;;;43.03;19.60;;;-0.10;99.90;;;;;;5031200;28;20074;-70
2021/12/27 04:35:37;;;;;;;38.90;19.73;;;-0.10;99.90;;;;;;5045170;28;20412;-70
2021/12/27 04:38:03;;;;;;;37.07;18.90;;;0.00;99.90;;;;;;5048904;28;20043;-70
2021/12/27 04:40:32;;;;;;;45.10;20.10;;;0.00;99.90;;;;;;5047272;28;20021;-70
2021/12/27 04:43:05;;;;;;;49.08;21.38;;;0.00;99.90;;;;;;5049943;28;20313;-70
2021/12/27 04:45:30;;;;;;;44.45;20.52;;;-0.20;99.90;;;;;;5045873;28;20031;-71
2021/12/27 04:47:56;;;;;;;46.50;20.90;;;-0.20;99.90;;;;;;5049756;28;20384;-72
2021/12/27 04:50:23;;;;;;;41.87;19.83;;;-0.40;99.90;;;;;;5045974;28;20113;-71
2021/12/27 04:52:53;;;;;;;;;;;-0.30;99.90;;;;;;5032816;28;20108;-70
2021/12/27 04:55:22;;;;;;;41.10;19.58;;;-0.40;99.90;;;;;;5048380;28;20353;-70
2021/12/27 04:57:48;;;;;;;42.30;18.60;;;-0.30;99.90;;;;;;5049708;28;20020;-70
2021/12/27 05:00:14;;;;;;;39.90;19.83;;;-0.20;99.90;;;;;;5034349;28;20021;-70
2021/12/27 05:02:40;;;;;;;39.80;18.92;;;-0.20;99.90;;;;;;5026018;28;20029;-70
2021/12/27 05:05:06;;;;;;;42.30;20.13;;;-0.30;99.90;;;;;;5050192;28;20032;-70
2021/12/27 05:07:32;;;;;;;40.83;19.10;;;-0.30;99.90;;;;;;5024838;28;20036;-70
2021/12/27 05:09:59;;;;;;;41.83;18.73;;;-0.30;99.90;;;;;;5032179;28;20259;-70
2021/12/27 05:12:25;;;;;;;45.50;20.17;;;-0.30;99.90;;;;;;5026970;28;20037;-70
2021/12/27 05:14:52;;;;;;;40.80;19.50;;;-0.30;99.90;;;;;;5029817;28;20017;-70
2021/12/27 05:17:17;;;;;;;;;;;-0.30;99.90;;;;;;5030045;28;20092;-70
2021/12/27 05:19:43;;;;;;;41.85;19.58;;;-0.30;99.90;;;;;;5022785;28;19911;-70
2021/12/27 05:22:09;;;;;;;40.03;18.93;;;-0.30;99.90;;;;;;5029614;28;20021;-70
2021/12/27 05:24:37;;;;;;;41.13;19.53;;;-0.20;99.90;;;;;;5026269;28;20027;-70
2021/12/27 05:27:03;;;;;;;38.45;19.33;;;-0.30;99.90;;;;;;5030123;28;20036;-70
2021/12/27 05:29:28;;;;;;;44.97;19.60;;;-0.30;99.90;;;;;;5024449;28;20025;-70
2021/12/27 05:32:01;;;;;;;41.60;18.57;;;-0.20;99.90;;;;;;5028979;28;20028;-70
2021/12/27 05:34:27;;;;;;;36.08;18.75;;;-0.20;99.90;;;;;;5025681;28;20029;-70
2021/12/27 05:36:55;;;;;;;38.85;18.38;;;-0.20;99.90;;;;;;5029242;28;20025;-70
2021/12/27 05:39:22;;;;;;;41.03;19.90;;;-0.20;99.90;;;;;;5018673;28;20044;-70
2021/12/27 05:41:49;;;;;;;42.22;18.77;;;-0.30;99.90;;;;;;5027779;28;20600;-70
2021/12/27 05:44:16;;;;;;;34.30;17.02;;;-0.20;99.90;;;;;;5031154;28;20036;-70
2021/12/27 05:46:43;;;;;;;40.40;16.73;;;-0.30;99.90;;;;;;5014106;28;20474;-70
2021/12/27 05:49:09;;;;;;;32.20;17.92;;;-0.30;99.90;;;;;;5029310;28;20025;-70
2021/12/27 05:51:36;;;;;;;30.50;15.60;;;-0.30;99.90;;;;;;5026595;28;20041;-70
2021/12/27 05:54:03;;;;;;;;;;;-0.30;99.90;;;;;;5029768;28;20022;-70
2021/12/27 05:56:28;;;;;;;38.10;17.73;;;-0.40;99.90;;;;;;5027747;28;20312;-71
2021/12/27 05:58:55;;;;;;;40.23;18.60;;;-0.30;99.90;;;;;;5031014;28;20034;-70
2021/12/27 06:01:21;;;;;;;33.75;17.50;;;-0.40;99.90;;;;;;5013478;28;20025;-70
2021/12/27 06:03:48;;;;;;;40.03;19.27;;;-0.30;99.90;;;;;;5025623;28;20078;-70
2021/12/27 06:06:15;;;;;;;32.67;16.60;;;-0.30;99.90;;;;;;5028617;28;20029;-70
2021/12/27 06:08:41;;;;;;;36.00;16.08;;;-0.30;99.90;;;;;;5024180;28;20032;-70
2021/12/27 06:11:08;;;;;;;34.83;17.83;;;-0.30;99.90;;;;;;5029406;28;20016;-70
2021/12/27 06:13:33;;;;;;;33.42;17.00;;;-0.20;99.90;;;;;;5025524;28;20044;-70
2021/12/27 06:15:59;;;;;;;36.87;16.03;;;-0.20;99.90;;;;;;5027956;28;20521;-70
2021/12/27 06:18:25;;;;;;;34.93;16.23;;;-0.20;99.90;;;;;;5031956;28;20476;-70
2021/12/27 06:20:50;;;;;;;33.03;16.30;;;-0.10;99.90;;;;;;5011002;28;20393;-70
2021/12/27 06:23:17;;;;;;;30.17;14.80;;;-0.10;99.90;;;;;;5022647;28;20090;-70
2021/12/27 06:25:43;;;;;;;24.85;15.00;;;-0.10;99.90;;;;;;5026565;28;20052;-70
2021/12/27 06:28:10;;;;;;;28.87;13.93;;;-0.10;99.90;;;;;;5004781;28;20067;-69
2021/12/27 06:30:36;;;;;;;26.67;13.43;;;-0.10;99.90;;;;;;5028994;28;20272;-69
2021/12/27 06:33:02;;;;;;;30.23;14.63;;;-0.10;99.90;;;;;;5023447;28;20053;-69
2021/12/27 06:35:27;;;;;;;28.37;14.50;;;-0.10;99.90;;;;;;5026215;28;20376;-70
2021/12/27 06:37:53;;;;;;;30.53;13.57;;;-0.10;99.90;;;;;;5024925;28;20021;-70
2021/12/27 06:40:19;;;;;;;25.23;12.93;;;-0.10;99.90;;;;;;5028679;28;20120;-70
2021/12/27 06:42:46;;;;;;;24.27;12.87;;;0.00;99.90;;;;;;5026816;28;20021;-70
2021/12/27 06:45:12;;;;;;;26.00;13.60;;;0.00;99.90;;;;;;5029977;28;20017;-69
2021/12/27 06:47:38;;;;;;;28.33;13.13;;;0.00;99.90;;;;;;5023858;28;20374;-70
2021/12/27 06:50:07;;;;;;;27.77;13.48;;;0.00;99.90;;;;;;5028460;28;20025;-70
2021/12/27 06:52:32;;;;;;;26.13;12.95;;;-0.10;99.90;;;;;;5021006;28;20136;-70
2021/12/27 06:54:58;;;;;;;27.93;13.40;;;-0.10;99.90;;;;;;5032099;28;20139;-70
2021/12/27 06:57:24;;;;;;;26.97;12.63;;;0.00;99.90;;;;;;5026029;28;20490;-70
2021/12/27 06:59:50;;;;;;;27.17;13.03;;;0.00;99.90;;;;;;5022510;28;20040;-70
2021/12/27 07:02:18;;;;;;;25.70;13.40;;;0.00;99.90;;;;;;5029331;28;20030;-69
2021/12/27 07:04:43;;;;;;;24.48;13.55;;;0.00;99.90;;;;;;5025301;28;20039;-69
2021/12/27 07:07:09;;;;;;;26.23;13.27;;;0.00;99.90;;;;;;5026892;28;20598;-70
2021/12/27 07:09:35;;;;;;;28.63;12.83;;;0.00;99.90;;;;;;5023438;28;20495;-70
2021/12/27 07:12:02;;;;;;;27.57;13.20;;;0.00;99.90;;;;;;5028475;28;20104;-71
2021/12/27 07:14:27;;;;;;;27.33;13.65;;;0.00;99.90;;;;;;5013756;28;20279;-70
2021/12/27 07:16:53;;;;;;;26.87;13.90;;;0.00;99.90;;;;;;5024440;28;21491;-70
2021/12/27 07:19:19;;;;;;;25.23;11.97;;;0.00;99.90;;;;;;5026162;28;20056;-70
2021/12/27 07:21:44;;;;;;;30.23;12.90;;;0.00;99.90;;;;;;5029687;28;20021;-70
2021/12/27 07:24:10;;;;;;;28.27;13.13;;;0.10;99.90;;;;;;5027868;28;20116;-70
2021/12/27 07:26:37;;;;;;;26.63;13.57;;;0.10;99.90;;;;;;5017768;28;20390;-70
2021/12/27 07:29:03;;;;;;;26.65;12.02;;;0.00;99.90;;;;;;5025161;28;20021;-70
2021/12/27 07:31:32;;;;;;;25.57;13.37;;;0.00;99.90;;;;;;5005827;28;20030;-70
2021/12/27 07:34:00;;;;;;;26.40;12.27;;;0.00;99.90;;;;;;5026019;28;20100;-70
2021/12/27 07:36:28;;;;;;;27.00;13.07;;;0.10;99.90;;;;;;5024623;28;20029;-70
2021/12/27 07:38:54;;;;;;;23.73;12.45;;;0.10;99.90;;;;;;5027367;28;20029;-70
2021/12/27 07:41:20;;;;;;;19.97;12.27;;;0.10;99.90;;;;;;5024439;28;20025;-70
2021/12/27 07:43:46;;;;;;;21.67;11.40;;;0.10;99.90;;;;;;5024373;28;20099;-70
2021/12/27 07:46:13;;;;;;;23.88;11.98;;;0.10;99.90;;;;;;5027184;28;20526;-70
2021/12/27 07:48:41;;;;;;;25.05;13.32;;;0.10;99.90;;;;;;5023321;28;20029;-70
2021/12/27 07:51:09;;;;;;;26.50;12.68;;;0.10;99.90;;;;;;5024343;28;20066;-70
2021/12/27 07:53:37;;;;;;;25.02;12.63;;;0.20;99.90;;;;;;5004527;28;20029;-70
2021/12/27 07:56:05;;;;;;;19.70;11.32;;;0.20;99.90;;;;;;5030406;28;20022;-70
2021/12/27 07:58:32;;;;;;;23.85;12.18;;;0.20;99.90;;;;;;5025870;28;20017;-71
2021/12/27 08:00:57;;;;;;;23.67;12.23;;;0.20;99.90;;;;;;5025545;28;20014;-70
2021/12/27 08:03:24;;;;;;;23.10;10.57;;;0.10;99.90;;;;;;5014782;28;20040;-70
2021/12/27 08:05:50;;;;;;;20.65;11.43;;;0.30;99.90;;;;;;5022594;28;20032;-70
2021/12/27 08:08:16;;;;;;;26.80;12.83;;;0.30;99.90;;;;;;5014558;28;20033;-70
2021/12/27 08:10:42;;;;;;;23.23;11.82;;;0.30;99.90;;;;;;5007646;28;20024;-70
2021/12/27 08:13:08;;;;;;;19.42;10.48;;;0.30;99.90;;;;;;5027756;28;20541;-70
2021/12/27 08:15:34;;;;;;;24.70;11.40;;;0.30;99.90;;;;;;5022368;28;20029;-71
2021/12/27 08:18:00;;;;;;;27.03;12.30;;;0.40;99.90;;;;;;5007977;28;20112;-70
2021/12/27 08:20:26;;;;;;;22.52;11.77;;;0.50;99.90;;;;;;5029707;28;20481;-70
2021/12/27 08:22:52;;;;;;;22.13;11.33;;;0.50;99.90;;;;;;5025487;28;20155;-70
2021/12/27 08:25:17;;;;;;;23.13;11.30;;;0.60;99.90;;;;;;5027430;28;20056;-70
2021/12/27 08:27:44;;;;;;;20.77;11.93;;;0.60;99.90;;;;;;5021712;28;20414;-70
2021/12/27 08:30:11;;;;;;;19.95;12.07;;;0.60;99.90;;;;;;5015707;28;21365;-71
2021/12/27 08:32:39;;;;;;;23.67;11.82;;;0.80;99.90;;;;;;5011326;28;20033;-70
2021/12/27 08:35:07;;;;;;;26.90;12.73;;;0.70;99.90;;;;;;5015760;28;20021;-70
2021/12/27 08:37:33;;;;;;;26.08;13.27;;;0.70;99.90;;;;;;5011065;28;20071;-66
2021/12/27 08:39:59;;;;;;;24.43;12.43;;;0.80;99.90;;;;;;5031063;28;20029;-70
2021/12/27 08:42:25;;;;;;;23.77;12.15;;;0.80;99.90;;;;;;5024506;28;20269;-70
2021/12/27 08:44:53;;;;;;;24.42;11.85;;;0.70;99.90;;;;;;5010768;28;20039;-70
2021/12/27 08:47:20;;;;;;;23.33;12.20;;;0.70;99.90;;;;;;5025461;28;20025;-69
2021/12/27 08:49:46;;;;;;;24.63;12.30;;;0.70;99.90;;;;;;5000146;28;20084;-69
2021/12/27 08:52:11;;;;;;;26.83;12.97;;;0.70;99.90;;;;;;5006206;28;20017;-70
2021/12/27 08:54:38;;;;;;;22.43;11.57;;;0.80;99.90;;;;;;5026057;28;20018;-70
2021/12/27 08:57:05;;;;;;;29.75;13.50;;;0.90;99.90;;;;;;5028884;28;20072;-70
2021/12/27 08:59:32;;;;;;;24.00;12.35;;;1.00;99.90;;;;;;5031677;28;20067;-70
2021/12/27 09:01:58;;;;;;;22.38;12.13;;;0.90;99.90;;;;;;5033150;28;20017;-70
2021/12/27 09:04:25;;;;;;;22.88;11.18;;;1.00;99.90;;;;;;5029847;28;20037;-70
2021/12/27 09:06:50;;;;;;;23.40;12.15;;;1.10;99.90;;;;;;5021220;28;20025;-70
2021/12/27 09:09:17;;;;;;;26.77;12.77;;;1.10;99.90;;;;;;5031727;28;20048;-70
2021/12/27 09:11:44;;;;;;;21.77;11.43;;;1.10;99.90;;;;;;5025910;28;20025;-70
2021/12/27 09:14:10;;;;;;;22.00;11.38;;;1.10;99.90;;;;;;5030632;28;20136;-69
2021/12/27 09:16:35;;;;;;;21.93;11.73;;;1.20;99.90;;;;;;5009417;28;20484;-70
2021/12/27 09:19:02;;;;;;;27.90;13.67;;;1.30;99.90;;;;;;5032303;28;20552;-70
2021/12/27 09:21:28;;;;;;;25.52;12.13;;;1.30;99.90;;;;;;5028049;28;20016;-70
2021/12/27 09:23:54;;;;;;;24.33;11.53;;;1.40;99.90;;;;;;5029289;28;20026;-70
2021/12/27 09:26:20;;;;;;;24.57;11.23;;;1.40;99.90;;;;;;5011635;28;20120;-70
2021/12/27 09:28:47;;;;;;;24.25;12.18;;;1.40;99.90;;;;;;5020924;28;20056;-70
2021/12/27 09:31:13;;;;;;;25.08;12.73;;;1.50;99.90;;;;;;5031396;28;20033;-70
2021/12/27 09:33:38;;;;;;;24.57;12.07;;;1.70;99.90;;;;;;5024584;28;20022;-70
2021/12/27 09:36:04;;;;;;;23.03;12.03;;;1.70;99.90;;;;;;5031144;28;20036;-70
2021/12/27 09:38:30;;;;;;;21.47;11.13;;;1.80;99.90;;;;;;5024831;28;20483;-70
2021/12/27 09:40:56;;;;;;;24.17;11.77;;;1.70;99.90;;;;;;5028902;28;20451;-70
2021/12/27 09:43:23;;;;;;;22.43;11.53;;;1.70;99.90;;;;;;5013262;28;20021;-70
2021/12/27 09:45:48;;;;;;;21.90;11.65;;;1.70;99.90;;;;;;5023344;28;20027;-69
2021/12/27 09:48:14;;;;;;;22.60;11.83;;;1.80;99.90;;;;;;5028240;28;20025;-70
2021/12/27 09:50:44;;;;;;;19.90;11.43;;;1.90;99.90;;;;;;5013942;28;20474;-70
2021/12/27 09:53:10;;;;;;;24.42;11.70;;;2.00;99.90;;;;;;5026256;28;20040;-70
2021/12/27 09:55:37;;;;;;;22.83;12.53;;;2.20;99.90;;;;;;5026711;28;20037;-70
2021/12/27 09:58:05;;;;;;;26.27;12.20;;;2.10;99.90;;;;;;5016496;28;20025;-71
2021/12/27 10:00:32;;;;;;;25.60;13.23;;;1.80;99.90;;;;;;5020170;28;20029;-70
2021/12/27 10:02:58;;;;;;;;;;;1.70;99.90;;;;;;5008372;28;20017;-71
2021/12/27 10:05:26;;;;;;;26.08;11.93;;;1.70;99.90;;;;;;5012200;28;19915;-71
2021/12/27 10:07:52;;;;;;;23.58;11.88;;;1.70;99.90;;;;;;5023065;28;20021;-71
2021/12/27 10:10:18;;;;;;;25.33;12.13;;;1.50;99.90;;;;;;5010326;28;20607;-70
2021/12/27 10:12:45;;;;;;;19.17;11.20;;;1.50;99.90;;;;;;5028536;28;20478;-70
2021/12/27 10:15:15;;;;;;;21.85;12.02;;;1.50;99.90;;;;;;5012203;28;20283;-70
2021/12/27 10:17:42;;;;;;;24.05;11.70;;;1.50;99.90;;;;;;5027781;28;20103;-69
2021/12/27 10:20:22;;;;;;;28.15;12.32;;;1.40;99.90;;;;;;5027685;28;20480;-70
2021/12/27 10:22:51;;;;;;;21.70;11.32;;;1.60;99.90;;;;;;5028756;28;20021;-70
2021/12/27 10:25:19;;;;;;;23.08;12.57;;;1.70;99.90;;;;;;5007410;28;20033;-70
2021/12/27 10:27:46;;;;;;;22.25;12.38;;;1.50;99.90;;;;;;5026538;28;20029;-70
2021/12/27 10:30:16;;;;;;;22.60;11.43;;;1.40;99.90;;;;;;5022525;28;20029;-70
2021/12/27 10:32:42;;;;;;;23.13;11.45;;;1.40;99.90;;;;;;5015422;28;20025;-70
2021/12/27 10:35:09;;;;;;;;;;;1.40;99.90;;;;;;5026031;28;20021;-70
2021/12/27 10:37:37;;;;;;;28.38;11.43;;;1.60;99.90;;;;;;5016622;28;19948;-70
2021/12/27 10:40:12;;;;;;;23.92;11.55;;;1.60;99.90;;;;;;5024911;28;20032;-70
2021/12/27 10:42:45;;;;;;;24.70;11.85;;;1.60;99.90;;;;;;5028050;28;20035;-70
2021/12/27 10:45:20;;;;;;;22.58;11.60;;;1.50;99.90;;;;;;5007136;28;20021;-70
2021/12/27 10:47:48;;;;;;;23.20;12.05;;;1.50;99.90;;;;;;5023942;28;20021;-70
2021/12/27 10:50:26;;;;;;;25.42;13.57;;;1.50;99.90;;;;;;5025512;28;20037;-70
2021/12/27 10:53:05;;;;;;;23.95;12.07;;;1.60;99.90;;;;;;5023677;28;20060;-70
2021/12/27 10:55:48;;;;;;;24.30;12.73;;;1.50;99.90;;;;;;5028450;28;20075;-70
2021/12/27 10:58:20;;;;;;;21.52;11.48;;;1.60;99.90;;;;;;5027139;28;20033;-69
2021/12/27 11:00:54;;;;;;;23.38;12.00;;;1.60;99.90;;;;;;5022558;28;20033;-69
2021/12/27 11:03:32;;;;;;;25.55;12.15;;;1.80;99.90;;;;;;5024615;28;20017;-71
2021/12/27 11:06:02;;;;;;;25.60;11.23;;;1.90;99.90;;;;;;5028875;28;20017;-70
2021/12/27 11:08:28;;;;;;;22.77;12.18;;;1.90;99.90;;;;;;5028895;28;20091;-69
2021/12/27 11:10:55;;;;;;;26.77;11.83;;;1.80;99.90;;;;;;5024134;28;20678;-70
2021/12/27 11:13:23;;;;;;;24.63;13.13;;;1.80;99.90;;;;;;5027323;28;20039;-69
2021/12/27 11:15:49;;;;;;;24.33;12.48;;;1.80;99.90;;;;;;5009903;28;20026;-70
2021/12/27 11:18:15;;;;;;;26.67;13.50;;;1.70;99.90;;;;;;5025505;28;20029;-69
2021/12/27 11:20:55;;;;;;;25.13;12.17;;;1.70;99.90;;;;;;5007588;28;20808;-70
2021/12/27 11:23:23;;;;;;;25.90;12.40;;;1.80;99.90;;;;;;5027730;28;20533;-69
2021/12/27 11:26:05;;;;;;;24.65;12.60;;;1.90;99.90;;;;;;5021379;28;20025;-72
2021/12/27 11:28:34;;;;;;;23.85;11.82;;;2.00;99.90;;;;;;5025761;28;20021;-70
2021/12/27 11:31:15;;;;;;;22.83;13.02;;;2.10;99.90;;;;;;5025555;28;20041;-69
2021/12/27 11:34:01;;;;;;;24.58;12.75;;;2.00;99.90;;;;;;5021846;28;20033;-70
2021/12/27 11:36:38;;;;;;;25.85;13.07;;;2.10;99.90;;;;;;5024731;28;20028;-70
2021/12/27 11:39:30;;;;;;;27.55;13.05;;;2.30;99.90;;;;;;5026032;28;20090;-70
2021/12/27 11:42:00;;;;;;;26.08;12.60;;;2.20;99.90;;;;;;5021226;28;20642;-70
2021/12/27 11:44:39;;;;;;;29.42;12.93;;;2.30;99.90;;;;;;5015909;28;20033;-70
2021/12/27 11:47:08;;;;;;;24.58;13.02;;;2.40;99.90;;;;;;5025933;28;20057;-69
2021/12/27 11:50:02;;;;;;;25.60;11.80;;;2.50;99.90;;;;;;5012818;28;20017;-70
2021/12/27 11:52:31;;;;;;;24.92;12.70;;;2.50;99.90;;;;;;5016320;28;20033;-71
2021/12/27 11:55:06;;;;;;;22.50;11.45;;;2.60;99.90;;;;;;5024514;28;20137;-70
2021/12/27 11:57:53;;;;;;;27.75;12.93;;;2.70;99.90;;;;;;5026955;28;20022;-70
2021/12/27 12:00:23;;;;;;;21.92;11.13;;;2.70;99.90;;;;;;5026042;28;20037;-70
2021/12/27 12:02:55;;;;;;;29.27;11.82;;;2.80;99.90;;;;;;5019070;28;20100;-70
2021/12/27 12:05:43;;;;;;;24.23;11.60;;;2.70;99.90;;;;;;5027297;28;20029;-70
2021/12/27 12:08:10;;;;;;;;;;;2.60;99.90;;;;;;5031168;28;20084;-70
2021/12/27 12:11:13;;;;;;;23.35;11.90;;;2.70;99.90;;;;;;5026265;28;20558;-70
2021/12/27 12:13:47;;;;;;;22.90;11.95;;;2.70;99.90;;;;;;4958239;28;20375;-70
2021/12/27 12:16:18;;;;;;;21.92;11.65;;;2.80;99.90;;;;;;5015978;28;20021;-69
2021/12/27 12:18:51;;;;;;;25.95;12.38;;;2.90;99.90;;;;;;5011202;28;20434;-70
2021/12/27 12:21:38;;;;;;;28.85;13.07;;;3.10;99.90;;;;;;5026092;28;20021;-70
2021/12/27 12:24:12;;;;;;;30.52;13.65;;;3.30;99.40;;;;;;5027809;28;20524;-71
2021/12/27 12:26:56;;;;;;;26.55;11.93;;;3.50;99.10;;;;;;5021541;28;20155;-72
2021/12/27 12:29:23;;;;;;;26.10;11.60;;;3.60;98.60;;;;;;5035246;28;20098;-70
2021/12/27 12:31:58;;;;;;;26.58;12.10;;;3.60;97.60;;;;;;5013248;28;20024;-70
2021/12/27 12:34:25;;;;;;;26.67;12.30;;;3.60;98.10;;;;;;5029667;28;20663;-70
2021/12/27 12:36:52;;;;;;;25.38;11.95;;;3.40;97.70;;;;;;5025703;28;20867;-70
2021/12/27 12:39:20;;;;;;;25.05;10.85;;;3.40;98.10;;;;;;5031797;28;20022;-70
2021/12/27 12:41:47;;;;;;;22.27;11.30;;;3.40;98.00;;;;;;5025936;28;20059;-70